createdAt,value
2023-01-27T00:00:20.126Z,100827.98
2023-01-27T00:03:27.170Z,100818.14
2023-01-27T00:06:31.653Z,100814.14
2023-01-27T00:09:37.762Z,100804.39
2023-01-27T00:13:01.769Z,100806.41
2023-01-27T00:16:08.443Z,100800.00
2023-01-27T00:19:07.934Z,100801.56
2023-01-27T00:22:18.401Z,100794.98
2023-01-27T00:25:24.696Z,100791.62
2023-01-27T00:28:32.344Z,100786.77
2023-01-27T00:31:55.561Z,100782.69
2023-01-27T00:35:01.353Z,100772.47
2023-01-27T00:38:06.795Z,100776.52
2023-01-27T00:41:27.569Z,100768.09
2023-01-27T00:44:33.178Z,100760.53
2023-01-27T00:47:38.337Z,100761.33
2023-01-27T00:50:46.033Z,100760.47
2023-01-27T00:53:52.108Z,100758.84
2023-01-27T00:56:58.756Z,100767.05
2023-01-27T01:00:04.669Z,100770.81
2023-01-27T01:03:10.277Z,100768.16
2023-01-27T01:06:20.220Z,100761.46
2023-01-27T01:09:17.866Z,100759.64
2023-01-27T01:12:10.566Z,100765.33
2023-01-27T01:15:17.339Z,100761.23
2023-01-27T01:18:23.768Z,100757.20
2023-01-27T01:21:29.950Z,100756.67
2023-01-27T01:24:35.900Z,100755.75
2023-01-27T01:27:44.937Z,100749.11
2023-01-27T01:30:51.037Z,100743.89
2023-01-27T01:33:58.549Z,100740.39
2023-01-27T01:37:04.455Z,100740.18
2023-01-27T01:40:03.662Z,100740.23
2023-01-27T01:43:14.418Z,100738.52
2023-01-27T01:46:19.967Z,100737.55
2023-01-27T01:49:25.658Z,100728.27
2023-01-27T01:52:34.099Z,100722.16
2023-01-27T01:55:40.704Z,100719.37
2023-01-27T01:58:46.464Z,100712.02
2023-01-27T02:01:54.064Z,100714.11
2023-01-27T02:05:14.541Z,100710.02
2023-01-27T02:08:37.122Z,100710.60
2023-01-27T02:11:43.980Z,100717.85
2023-01-27T02:14:50.258Z,100716.05
2023-01-27T02:17:56.162Z,100722.64
2023-01-27T02:21:06.551Z,100726.19
2023-01-27T02:24:18.713Z,100730.16
2023-01-27T02:27:24.659Z,100724.00
2023-01-27T02:30:23.654Z,100717.00
2023-01-27T02:33:29.306Z,100711.83
2023-01-27T02:36:28.616Z,100713.41
2023-01-27T02:39:15.371Z,100715.99
2023-01-27T02:42:07.734Z,100714.28
2023-01-27T02:45:00.235Z,100716.62
2023-01-27T02:48:05.457Z,100722.38
2023-01-27T02:51:11.025Z,100731.97
2023-01-27T02:54:17.801Z,100727.59
2023-01-27T02:57:23.890Z,100729.26
2023-01-27T03:00:44.715Z,100730.50
2023-01-27T03:03:55.520Z,100732.94
2023-01-27T03:07:02.362Z,100736.20
2023-01-27T03:10:08.269Z,100746.76
2023-01-27T03:13:13.532Z,100737.68
2023-01-27T03:16:38.733Z,100731.02
2023-01-27T03:19:43.783Z,100729.26
2023-01-27T03:22:49.637Z,100722.57
2023-01-27T03:25:53.782Z,100707.13
2023-01-27T03:29:20.580Z,100710.80
2023-01-27T03:32:26.596Z,100712.70
2023-01-27T03:35:39.452Z,100698.67
2023-01-27T03:39:03.124Z,100697.06
2023-01-27T03:42:20.237Z,100692.45
2023-01-27T03:45:43.415Z,100694.17
2023-01-27T03:48:50.568Z,100697.04
2023-01-27T03:51:57.177Z,100694.93
2023-01-27T03:55:02.453Z,100691.59
2023-01-27T03:58:27.557Z,100699.34
2023-01-27T04:01:36.208Z,100702.32
2023-01-27T04:04:59.222Z,100699.62
2023-01-27T04:08:05.048Z,100703.46
2023-01-27T04:11:35.263Z,100696.92
2023-01-27T04:14:46.331Z,100693.28
2023-01-27T04:17:52.418Z,100694.31
2023-01-27T04:20:58.258Z,100693.52
2023-01-27T04:24:03.326Z,100694.56
2023-01-27T04:27:19.522Z,100702.25
2023-01-27T04:30:25.174Z,100701.56
2023-01-27T04:33:31.594Z,100700.60
2023-01-27T04:36:38.142Z,100708.66
2023-01-27T04:39:44.165Z,100704.43
2023-01-27T04:42:49.304Z,100703.39
2023-01-27T04:45:55.539Z,100707.71
2023-01-27T04:49:03.244Z,100701.86
2023-01-27T04:52:10.037Z,100705.05
2023-01-27T04:55:16.311Z,100707.23
2023-01-27T04:58:23.479Z,100706.01
2023-01-27T05:01:29.645Z,100710.73
2023-01-27T05:04:36.842Z,100715.45
2023-01-27T05:07:43.248Z,100718.30
2023-01-27T05:10:48.264Z,100708.69
2023-01-27T05:13:55.515Z,100714.59
2023-01-27T05:17:01.758Z,100718.59
2023-01-27T05:20:07.375Z,100718.59
2023-01-27T05:23:30.606Z,100720.72
2023-01-27T05:26:38.929Z,100716.28
2023-01-27T05:29:44.368Z,100716.13
2023-01-27T05:32:50.946Z,100708.55
2023-01-27T05:35:56.614Z,100719.23
2023-01-27T05:39:02.760Z,100726.99
2023-01-27T05:42:07.937Z,100723.75
2023-01-27T05:45:13.571Z,100718.31
2023-01-27T05:48:18.814Z,100721.30
2023-01-27T05:51:25.410Z,100729.30
2023-01-27T05:54:32.104Z,100733.42
2023-01-27T05:57:37.393Z,100729.78
2023-01-27T06:00:43.649Z,100732.08
2023-01-27T06:03:49.422Z,100729.38
2023-01-27T06:06:55.996Z,100738.62
2023-01-27T06:10:01.936Z,100741.13
2023-01-27T06:13:07.314Z,100741.30
2023-01-27T06:16:06.465Z,100738.95
2023-01-27T06:19:12.257Z,100741.66
2023-01-27T06:22:17.899Z,100747.36
2023-01-27T06:25:24.019Z,100743.02
2023-01-27T06:28:30.252Z,100738.95
2023-01-27T06:31:35.539Z,100731.45
2023-01-27T06:34:41.381Z,100725.84
2023-01-27T06:37:46.575Z,100722.66
2023-01-27T06:40:44.895Z,100716.01
2023-01-27T06:43:51.179Z,100712.91
2023-01-27T06:46:57.889Z,100727.53
2023-01-27T06:50:03.276Z,100720.67
2023-01-27T06:53:16.740Z,100717.73
2023-01-27T06:56:28.556Z,100712.59
2023-01-27T06:59:36.502Z,100712.38
2023-01-27T07:02:43.519Z,100712.88
2023-01-27T07:05:49.530Z,100706.00
2023-01-27T07:08:57.773Z,100696.00
2023-01-27T07:12:03.492Z,100700.09
2023-01-27T07:15:10.758Z,100699.60
2023-01-27T07:18:10.706Z,100700.05
2023-01-27T07:21:19.973Z,100683.09
2023-01-27T07:24:26.359Z,100681.80
2023-01-27T07:27:36.242Z,100688.05
2023-01-27T07:30:42.506Z,100683.33
2023-01-27T07:33:49.305Z,100680.06
2023-01-27T07:36:55.272Z,100672.61
2023-01-27T07:40:00.757Z,100674.87
2023-01-27T07:43:06.596Z,100650.01
2023-01-27T07:46:13.507Z,100638.39
2023-01-27T07:49:19.816Z,100642.16
2023-01-27T07:52:27.636Z,100648.61
2023-01-27T07:55:36.781Z,100651.46
2023-01-27T07:58:43.957Z,100654.72
2023-01-27T08:01:50.643Z,100666.28
2023-01-27T08:04:56.774Z,100652.44
2023-01-27T08:08:05.556Z,100649.20
2023-01-27T08:11:15.197Z,100639.94
2023-01-27T08:14:20.343Z,100638.05
2023-01-27T08:17:25.823Z,100625.76
2023-01-27T08:20:24.421Z,100630.08
2023-01-27T08:23:30.112Z,100628.90
2023-01-27T08:26:35.022Z,100633.23
2023-01-27T08:29:40.258Z,100631.34
2023-01-27T08:32:46.212Z,100622.42
2023-01-27T08:35:52.402Z,100616.37
2023-01-27T08:38:59.007Z,100614.13
2023-01-27T08:42:05.812Z,100599.52
2023-01-27T08:45:11.035Z,100597.75
2023-01-27T08:48:17.018Z,100597.47
2023-01-27T08:51:23.395Z,100583.25
2023-01-27T08:54:34.730Z,100581.38
2023-01-27T08:57:42.015Z,100572.81
2023-01-27T09:00:48.269Z,100575.37
2023-01-27T09:03:53.779Z,100563.83
2023-01-27T09:07:00.439Z,100573.11
2023-01-27T09:10:20.226Z,100563.53
2023-01-27T09:13:14.004Z,100568.02
2023-01-27T09:16:19.584Z,100563.67
2023-01-27T09:19:25.009Z,100557.91
2023-01-27T09:22:30.167Z,100557.88
2023-01-27T09:25:36.709Z,100552.43
2023-01-27T09:28:41.929Z,100549.88
2023-01-27T09:31:46.718Z,100547.61
2023-01-27T09:34:54.448Z,100550.95
2023-01-27T09:38:09.908Z,100560.66
2023-01-27T09:41:41.925Z,100559.63
2023-01-27T09:45:28.193Z,100562.50
2023-01-27T09:49:19.218Z,100555.94
2023-01-27T09:52:48.247Z,100543.25
2023-01-27T09:56:30.094Z,100548.65
2023-01-27T09:59:45.700Z,100544.52
2023-01-27T10:03:13.578Z,100543.10
2023-01-27T10:07:12.754Z,100536.63
2023-01-27T10:10:40.432Z,100542.84
2023-01-27T10:14:09.280Z,100528.74
2023-01-27T10:17:45.112Z,100528.39
2023-01-27T10:21:08.877Z,100522.86
2023-01-27T10:24:28.842Z,100518.16
2023-01-27T10:27:38.537Z,100520.22
2023-01-27T10:30:51.111Z,100510.05
2023-01-27T10:34:09.690Z,100506.51
2023-01-27T10:37:42.055Z,100498.91
2023-01-27T10:41:07.250Z,100495.64
2023-01-27T10:44:39.541Z,100491.78
2023-01-27T10:47:58.563Z,100484.98
2023-01-27T10:51:18.000Z,100470.98
2023-01-27T10:54:33.379Z,100458.92
2023-01-27T10:57:46.132Z,100452.72
2023-01-27T11:01:19.750Z,100457.45
2023-01-27T11:04:20.144Z,100449.90
2023-01-27T11:07:36.087Z,100455.39
2023-01-27T11:10:54.810Z,100457.05
2023-01-27T11:14:03.541Z,100447.42
2023-01-27T11:17:28.316Z,100448.46
2023-01-27T11:20:58.937Z,100449.91
2023-01-27T11:24:07.875Z,100450.41
2023-01-27T11:27:30.198Z,100435.20
2023-01-27T11:31:09.131Z,100436.55
2023-01-27T11:34:49.402Z,100440.63
2023-01-27T11:38:14.833Z,100423.77
2023-01-27T11:41:12.739Z,100430.16
2023-01-27T11:44:30.551Z,100425.14
2023-01-27T11:47:42.328Z,100436.56
2023-01-27T11:50:48.953Z,100435.09
2023-01-27T11:53:54.434Z,100434.37
2023-01-27T11:57:03.279Z,100418.62
2023-01-27T12:00:19.222Z,100428.55
2023-01-27T12:03:47.237Z,100426.11
2023-01-27T12:07:32.049Z,100428.17
2023-01-27T12:10:51.576Z,100428.61
2023-01-27T12:14:13.324Z,100432.42
2023-01-27T12:17:19.301Z,100436.75
2023-01-27T12:20:55.967Z,100436.78
2023-01-27T12:24:01.167Z,100435.26
2023-01-27T12:27:00.341Z,100431.50
2023-01-27T12:30:09.626Z,100434.33
2023-01-27T12:33:14.318Z,100428.05
2023-01-27T12:36:32.151Z,100415.16
2023-01-27T12:40:02.870Z,100419.66
2023-01-27T12:43:27.692Z,100416.06
2023-01-27T12:46:40.935Z,100419.23
2023-01-27T12:49:51.096Z,100422.42
2023-01-27T12:52:57.522Z,100428.14
2023-01-27T12:56:23.956Z,100426.84
2023-01-27T12:59:30.623Z,100443.90
2023-01-27T13:02:37.367Z,100444.05
2023-01-27T13:05:43.343Z,100438.85
2023-01-27T13:08:41.881Z,100442.82
2023-01-27T13:11:53.590Z,100432.81
2023-01-27T13:14:59.605Z,100439.08
2023-01-27T13:18:11.412Z,100432.57
2023-01-27T13:21:33.041Z,100423.71
2023-01-27T13:24:51.939Z,100430.19
2023-01-27T13:27:57.957Z,100418.86
2023-01-27T13:31:08.866Z,100423.73
2023-01-27T13:34:21.604Z,100416.17
2023-01-27T13:38:02.654Z,100423.87
2023-01-27T13:41:08.415Z,100419.19
2023-01-27T13:44:39.047Z,100428.30
2023-01-27T13:48:11.648Z,100431.88
2023-01-27T13:51:26.564Z,100424.26
2023-01-27T13:54:33.596Z,100429.06
2023-01-27T13:58:01.727Z,100425.25
2023-01-27T14:01:24.269Z,100423.90
2023-01-27T14:04:58.696Z,100419.06
2023-01-27T14:08:20.545Z,100418.94
2023-01-27T14:12:08.086Z,100420.29
2023-01-27T14:15:36.952Z,100420.58
2023-01-27T14:19:01.232Z,100407.22
2023-01-27T14:22:11.690Z,100403.52
2023-01-27T14:25:31.380Z,100407.44
2023-01-27T14:29:07.162Z,100404.61
2023-01-27T14:32:51.543Z,100406.30
2023-01-27T14:36:25.040Z,100409.15
2023-01-27T14:40:09.145Z,100412.13
2023-01-27T14:43:33.072Z,100426.30
2023-01-27T14:47:08.794Z,100417.66
2023-01-27T14:50:47.664Z,100413.05
2023-01-27T14:54:07.272Z,100407.86
2023-01-27T14:57:48.696Z,100418.95
2023-01-27T15:01:21.168Z,100417.17
2023-01-27T15:04:52.443Z,100417.91
2023-01-27T15:08:17.582Z,100407.17
2023-01-27T15:12:08.795Z,100406.58
2023-01-27T15:16:02.459Z,100406.43
2023-01-27T15:19:25.899Z,100408.09
2023-01-27T15:22:58.647Z,100395.23
2023-01-27T15:26:07.866Z,100395.53
2023-01-27T15:29:14.565Z,100379.86
2023-01-27T15:32:39.791Z,100384.23
2023-01-27T15:35:53.832Z,100377.81
2023-01-27T15:39:39.640Z,100379.87
2023-01-27T15:42:34.300Z,100380.57
2023-01-27T15:45:54.963Z,100383.20
2023-01-27T15:49:01.655Z,100372.16
2023-01-27T15:52:11.719Z,100377.69
2023-01-27T15:55:18.808Z,100381.98
2023-01-27T15:58:35.474Z,100384.18
2023-01-27T16:01:48.716Z,100386.23
2023-01-27T16:04:48.815Z,100385.14
2023-01-27T16:07:46.262Z,100381.00
2023-01-27T16:10:52.327Z,100382.30
2023-01-27T16:13:58.278Z,100385.95
2023-01-27T16:17:17.275Z,100390.86
2023-01-27T16:20:36.088Z,100385.09
2023-01-27T16:23:52.874Z,100385.87
2023-01-27T16:27:21.045Z,100387.42
2023-01-27T16:30:27.221Z,100383.75
2023-01-27T16:33:42.432Z,100391.56
2023-01-27T16:36:45.289Z,100387.40
2023-01-27T16:39:48.414Z,100380.09
2023-01-27T16:42:54.695Z,100379.80
2023-01-27T16:46:03.987Z,100383.99
2023-01-27T16:49:11.530Z,100376.46
2023-01-27T16:52:21.228Z,100376.72
2023-01-27T16:55:35.539Z,100372.31
2023-01-27T16:58:46.689Z,100368.46
2023-01-27T17:02:11.937Z,100366.16
2023-01-27T17:05:22.486Z,100366.41
2023-01-27T17:08:43.887Z,100367.78
2023-01-27T17:11:50.844Z,100360.65
2023-01-27T17:14:57.725Z,100367.07
2023-01-27T17:18:03.980Z,100365.33
2023-01-27T17:21:10.045Z,100366.13
2023-01-27T17:24:29.322Z,100364.81
2023-01-27T17:27:43.538Z,100362.13
2023-01-27T17:30:53.600Z,100360.55
2023-01-27T17:34:02.626Z,100358.81
2023-01-27T17:37:33.925Z,100365.76
2023-01-27T17:40:40.008Z,100361.33
2023-01-27T17:43:53.075Z,100366.50
2023-01-27T17:46:58.005Z,100359.52
2023-01-27T17:50:04.091Z,100356.80
2023-01-27T17:53:13.061Z,100360.77
2023-01-27T17:56:32.096Z,100361.28
2023-01-27T17:59:37.352Z,100351.53
2023-01-27T18:02:52.907Z,100356.92
2023-01-27T18:05:59.958Z,100357.89
2023-01-27T18:09:10.634Z,100356.00
2023-01-27T18:12:13.201Z,100353.84
2023-01-27T18:15:07.045Z,100354.02
2023-01-27T18:18:19.672Z,100359.66
2023-01-27T18:21:34.866Z,100359.51
2023-01-27T18:24:41.092Z,100355.05
2023-01-27T18:27:50.671Z,100356.69
2023-01-27T18:31:03.948Z,100354.25
2023-01-27T18:34:23.507Z,100348.84
2023-01-27T18:37:47.235Z,100352.63
2023-01-27T18:40:54.007Z,100344.65
2023-01-27T18:44:02.960Z,100345.57
2023-01-27T18:47:14.372Z,100341.99
2023-01-27T18:50:31.845Z,100343.95
2023-01-27T18:53:37.554Z,100344.93
2023-01-27T18:56:42.565Z,100336.19
2023-01-27T18:59:47.673Z,100329.44
2023-01-27T19:02:53.668Z,100322.00
2023-01-27T19:05:59.755Z,100319.68
2023-01-27T19:09:05.346Z,100325.58
2023-01-27T19:12:10.705Z,100325.11
2023-01-27T19:15:16.609Z,100322.05
2023-01-27T19:18:40.075Z,100314.96
2023-01-27T19:21:47.461Z,100313.18
2023-01-27T19:24:53.429Z,100313.45
2023-01-27T19:27:57.600Z,100314.81
2023-01-27T19:31:04.792Z,100314.13
2023-01-27T19:34:10.186Z,100311.02
2023-01-27T19:37:15.292Z,100305.16
2023-01-27T19:40:27.629Z,100307.56
2023-01-27T19:43:34.035Z,100307.47
2023-01-27T19:46:39.953Z,100300.95
2023-01-27T19:49:44.910Z,100307.95
2023-01-27T19:52:50.072Z,100298.83
2023-01-27T19:55:57.453Z,100305.89
2023-01-27T19:58:58.285Z,100302.63
2023-01-27T20:02:04.048Z,100297.05
2023-01-27T20:05:02.879Z,100301.05
2023-01-27T20:08:12.864Z,100295.37
2023-01-27T20:11:19.421Z,100295.77
2023-01-27T20:14:32.795Z,100300.34
2023-01-27T20:17:38.412Z,100298.14
2023-01-27T20:20:45.027Z,100294.94
2023-01-27T20:23:51.341Z,100288.91
2023-01-27T20:26:58.092Z,100290.12
2023-01-27T20:30:04.921Z,100292.21
2023-01-27T20:33:11.256Z,100288.41
2023-01-27T20:36:22.627Z,100286.58
2023-01-27T20:39:28.283Z,100293.54
2023-01-27T20:42:35.322Z,100291.99
2023-01-27T20:45:41.676Z,100285.41
2023-01-27T20:48:47.880Z,100288.53
2023-01-27T20:51:52.817Z,100279.84
2023-01-27T20:54:58.548Z,100276.33
2023-01-27T20:58:05.476Z,100274.27
2023-01-27T21:01:28.773Z,100266.16
2023-01-27T21:04:34.979Z,100268.48
2023-01-27T21:07:40.261Z,100269.65
2023-01-27T21:10:45.375Z,100266.06
2023-01-27T21:13:52.088Z,100266.50
2023-01-27T21:16:58.236Z,100260.35
2023-01-27T21:20:03.869Z,100261.76
2023-01-27T21:23:10.687Z,100252.36
2023-01-27T21:26:14.714Z,100247.86
2023-01-27T21:29:21.540Z,100249.52
2023-01-27T21:32:27.171Z,100241.33
2023-01-27T21:35:35.015Z,100233.05
2023-01-27T21:38:41.157Z,100229.63
2023-01-27T21:42:02.775Z,100228.30
2023-01-27T21:45:20.141Z,100228.94
2023-01-27T21:48:25.934Z,100218.05
2023-01-27T21:51:32.480Z,100217.17
2023-01-27T21:54:37.488Z,100214.94
2023-01-27T21:57:42.727Z,100209.75
2023-01-27T22:00:49.391Z,100211.39
2023-01-27T22:03:54.607Z,100206.06
2023-01-27T22:07:01.019Z,100199.16
2023-01-27T22:10:06.430Z,100196.64
2023-01-27T22:13:17.444Z,100188.83
2023-01-27T22:16:26.972Z,100192.13
2023-01-27T22:19:32.839Z,100188.92
2023-01-27T22:22:39.226Z,100196.77
2023-01-27T22:25:46.192Z,100192.75
2023-01-27T22:28:52.740Z,100191.22
2023-01-27T22:31:58.808Z,100196.63
2023-01-27T22:35:04.503Z,100197.44
2023-01-27T22:38:10.150Z,100195.22
2023-01-27T22:41:16.824Z,100192.05
2023-01-27T22:44:22.777Z,100189.06
2023-01-27T22:47:29.104Z,100176.84
2023-01-27T22:50:34.828Z,100181.89
2023-01-27T22:53:40.806Z,100169.75
2023-01-27T22:56:46.352Z,100173.09
2023-01-27T22:59:45.449Z,100169.33
2023-01-27T23:02:51.904Z,100163.05
2023-01-27T23:05:57.994Z,100168.22
2023-01-27T23:09:02.957Z,100156.28
2023-01-27T23:12:09.390Z,100159.64
2023-01-27T23:15:15.222Z,100152.64
2023-01-27T23:18:22.749Z,100156.22
2023-01-27T23:21:29.463Z,100151.76
2023-01-27T23:24:35.559Z,100148.12
2023-01-27T23:27:41.140Z,100146.34
2023-01-27T23:30:47.101Z,100145.74
2023-01-27T23:33:55.738Z,100140.98
2023-01-27T23:37:00.511Z,100138.18
2023-01-27T23:40:05.951Z,100136.28
2023-01-27T23:43:05.548Z,100136.11
2023-01-27T23:46:11.194Z,100138.70
2023-01-27T23:49:17.144Z,100135.55
2023-01-27T23:52:22.913Z,100139.00
2023-01-27T23:55:28.870Z,100136.52
2023-01-27T23:58:35.451Z,100127.13
